Time;durP1;ratioP1;P1;durP2;ratioP2;P2;SDS_P1;SDS_P2;PMS_P1;PMS_P2;Temp;Humidity;BMP_temperature;BMP_pressure;BME280_temperature;BME280_humidity;BME280_pressure;Samples;Min_cycle;Max_cycle;Signal;HPM_P1;HPM_P2
2023/12/19 00:01:28;;;;;;;30.57;20.83;;;5.00;99.90;;;;;;5056115;28;20194;-69
2023/12/19 00:03:54;;;;;;;31.77;20.53;;;5.00;99.90;;;;;;5054625;28;20175;-68
2023/12/19 00:06:20;;;;;;;32.03;21.00;;;5.00;99.90;;;;;;5055893;28;20254;-68
2023/12/19 00:08:46;;;;;;;29.93;20.50;;;4.90;99.90;;;;;;5056028;28;20193;-68
2023/12/19 00:11:11;;;;;;;27.90;21.37;;;4.90;99.90;;;;;;5055573;28;20209;-67
2023/12/19 00:13:37;;;;;;;34.13;21.90;;;4.90;99.90;;;;;;5056345;28;20179;-68
2023/12/19 00:16:03;;;;;;;30.87;21.73;;;4.90;99.90;;;;;;5055644;28;20224;-68
2023/12/19 00:18:30;;;;;;;30.90;21.67;;;4.90;99.90;;;;;;5056107;28;20174;-68
2023/12/19 00:20:56;;;;;;;27.77;20.63;;;4.90;99.90;;;;;;5056008;28;20187;-68
2023/12/19 00:23:22;;;;;;;31.13;21.13;;;4.90;99.90;;;;;;5055681;28;20189;-68
2023/12/19 00:25:48;;;;;;;30.80;20.20;;;4.90;99.90;;;;;;5054175;28;20206;-69
2023/12/19 00:28:14;;;;;;;30.60;20.53;;;4.90;99.90;;;;;;5054361;28;20368;-68
2023/12/19 00:30:40;;;;;;;32.97;21.60;;;4.90;99.90;;;;;;5054918;28;20305;-68
2023/12/19 00:33:06;;;;;;;34.00;22.17;;;4.90;99.90;;;;;;5055424;28;20167;-68
2023/12/19 00:35:33;;;;;;;35.07;21.83;;;5.00;99.90;;;;;;5055623;28;20202;-69
2023/12/19 00:38:02;;;;;;;28.73;20.33;;;5.00;99.90;;;;;;5055392;28;20162;-68
2023/12/19 00:40:27;;;;;;;31.10;20.33;;;5.00;99.90;;;;;;5055173;28;20197;-68
2023/12/19 00:42:53;;;;;;;25.80;19.87;;;5.00;99.90;;;;;;5055039;28;20163;-68
2023/12/19 00:45:19;;;;;;;29.50;20.87;;;5.00;99.90;;;;;;5055140;28;20185;-68
2023/12/19 00:47:45;;;;;;;32.13;21.57;;;5.00;99.90;;;;;;5055376;28;20182;-68
2023/12/19 00:50:13;;;;;;;31.80;21.43;;;5.00;99.90;;;;;;5054916;28;20221;-68
2023/12/19 00:52:38;;;;;;;28.27;20.60;;;5.10;99.90;;;;;;5055360;28;20540;-68
2023/12/19 00:55:05;;;;;;;27.13;19.93;;;5.10;99.90;;;;;;5053831;28;20198;-68
2023/12/19 00:57:31;;;;;;;26.33;19.37;;;5.10;99.90;;;;;;5053459;28;20179;-68
2023/12/19 00:59:57;;;;;;;28.87;20.00;;;5.10;99.90;;;;;;5054870;28;20549;-69
2023/12/19 01:02:23;;;;;;;28.23;20.03;;;5.10;99.90;;;;;;5055573;28;20624;-68
2023/12/19 01:04:49;;;;;;;23.17;16.60;;;5.00;99.90;;;;;;5053646;28;20201;-69
2023/12/19 01:07:15;;;;;;;24.33;18.20;;;5.00;99.90;;;;;;5054990;28;20182;-68
2023/12/19 01:09:41;;;;;;;23.83;17.20;;;5.00;99.90;;;;;;5055072;28;20270;-68
2023/12/19 01:12:07;;;;;;;24.07;17.83;;;5.00;99.90;;;;;;5054973;28;20193;-69
2023/12/19 01:14:32;;;;;;;23.13;17.07;;;5.00;99.90;;;;;;5055180;28;20198;-69
2023/12/19 01:16:58;;;;;;;25.00;17.30;;;5.00;99.90;;;;;;5054826;28;20233;-67
2023/12/19 01:19:24;;;;;;;25.67;18.43;;;5.00;99.90;;;;;;5054654;28;20194;-68
2023/12/19 01:21:50;;;;;;;26.50;18.20;;;5.00;99.90;;;;;;5054871;28;20167;-68
2023/12/19 01:24:16;;;;;;;22.23;16.97;;;5.00;99.90;;;;;;5054522;28;20171;-69
2023/12/19 01:26:41;;;;;;;23.83;17.83;;;5.00;99.90;;;;;;5054309;28;20170;-67
2023/12/19 01:29:07;;;;;;;22.80;17.50;;;5.00;99.90;;;;;;5054492;28;20177;-67
2023/12/19 01:31:35;;;;;;;24.27;17.13;;;5.00;99.90;;;;;;5054375;28;20651;-69
2023/12/19 01:34:01;;;;;;;23.13;18.73;;;5.00;99.90;;;;;;5054268;28;20171;-69
2023/12/19 01:36:26;;;;;;;23.70;17.13;;;4.90;99.90;;;;;;5054630;28;20643;-68
2023/12/19 01:38:52;;;;;;;22.93;16.57;;;4.90;99.90;;;;;;5055372;28;20544;-68
2023/12/19 01:41:18;;;;;;;22.00;16.37;;;4.90;99.90;;;;;;5057166;28;20190;-68
2023/12/19 01:43:44;;;;;;;22.10;17.47;;;4.90;99.90;;;;;;5059790;28;20236;-69
2023/12/19 01:46:15;;;;;;;23.03;16.63;;;4.90;99.90;;;;;;5056774;28;20178;-69
2023/12/19 01:48:41;;;;;;;21.43;15.87;;;4.90;99.90;;;;;;5055938;28;20194;-69
2023/12/19 01:51:08;;;;;;;23.70;16.40;;;4.90;99.90;;;;;;5057286;28;20198;-69
2023/12/19 01:53:34;;;;;;;20.83;16.20;;;4.90;99.90;;;;;;5057971;28;20279;-68
2023/12/19 01:56:01;;;;;;;26.67;17.50;;;4.90;99.90;;;;;;5054163;28;20201;-67
2023/12/19 01:58:29;;;;;;;23.07;16.90;;;4.90;99.90;;;;;;5054061;28;20170;-68
2023/12/19 02:00:55;;;;;;;21.73;16.60;;;4.90;99.90;;;;;;5053867;28;20186;-68
2023/12/19 02:03:21;;;;;;;19.63;16.23;;;4.90;99.90;;;;;;5052599;28;20250;-68
2023/12/19 02:05:50;;;;;;;20.60;16.27;;;4.90;99.90;;;;;;5053683;28;20175;-68
2023/12/19 02:08:16;;;;;;;18.87;15.07;;;4.80;99.90;;;;;;5053757;28;20261;-68
2023/12/19 02:10:42;;;;;;;19.53;14.90;;;4.80;99.90;;;;;;5053790;28;20222;-69
2023/12/19 02:13:08;;;;;;;21.03;16.03;;;4.90;99.90;;;;;;5053470;28;20252;-67
2023/12/19 02:15:34;;;;;;;19.77;15.17;;;4.80;99.90;;;;;;5053497;28;20202;-68
2023/12/19 02:18:16;;;;;;;21.70;15.10;;;4.80;99.90;;;;;;5053764;28;20225;-68
2023/12/19 02:20:42;;;;;;;20.20;15.63;;;4.90;99.90;;;;;;5053990;28;20197;-69
2023/12/19 02:23:09;;;;;;;19.37;15.47;;;4.90;99.90;;;;;;5053464;28;20171;-69
2023/12/19 02:25:35;;;;;;;19.70;15.37;;;4.90;99.90;;;;;;5052161;28;20247;-69
2023/12/19 02:28:01;;;;;;;21.97;15.90;;;4.90;99.90;;;;;;5053125;28;20264;-68
2023/12/19 02:30:27;;;;;;;20.40;15.87;;;4.90;99.90;;;;;;5053350;28;20190;-67
2023/12/19 02:32:53;;;;;;;23.00;15.23;;;4.90;99.90;;;;;;5053318;28;20175;-69
2023/12/19 02:35:19;;;;;;;20.13;16.37;;;4.90;99.90;;;;;;5052019;28;20209;-68
2023/12/19 02:37:45;;;;;;;20.60;16.00;;;4.90;99.90;;;;;;5053259;28;20224;-68
2023/12/19 02:40:12;;;;;;;20.87;16.00;;;4.90;99.90;;;;;;5051850;28;20190;-68
2023/12/19 02:42:42;;;;;;;19.67;15.10;;;4.80;99.90;;;;;;5052941;28;20181;-68
2023/12/19 02:45:10;;;;;;;22.90;15.90;;;4.80;99.90;;;;;;5053028;28;20265;-67
2023/12/19 02:47:36;;;;;;;19.70;16.00;;;4.80;99.90;;;;;;5053012;28;20167;-68
2023/12/19 02:50:01;;;;;;;22.70;16.70;;;4.80;99.90;;;;;;5053338;28;20289;-67
2023/12/19 02:52:27;;;;;;;21.63;15.37;;;4.80;99.90;;;;;;5051403;28;20231;-68
2023/12/19 02:54:53;;;;;;;21.90;15.83;;;4.80;99.90;;;;;;5051580;28;20252;-69
2023/12/19 02:57:19;;;;;;;20.07;15.63;;;4.80;99.90;;;;;;5052790;28;20170;-68
2023/12/19 02:59:45;;;;;;;22.90;16.00;;;4.80;99.90;;;;;;5052812;28;20191;-68
2023/12/19 03:02:10;;;;;;;17.70;14.63;;;4.80;99.90;;;;;;5051632;28;20178;-68
2023/12/19 03:04:38;;;;;;;18.27;14.53;;;4.80;99.90;;;;;;5053443;28;20178;-69
2023/12/19 03:07:04;;;;;;;19.27;15.30;;;4.80;99.90;;;;;;5052882;28;20171;-68
2023/12/19 03:09:30;;;;;;;19.27;14.73;;;4.80;99.90;;;;;;5051517;28;20231;-68
2023/12/19 03:12:03;;;;;;;19.70;15.93;;;4.80;99.90;;;;;;5052647;28;20174;-65
2023/12/19 03:14:32;;;;;;;20.37;15.13;;;4.80;99.90;;;;;;5052910;28;20612;-68
2023/12/19 03:16:59;;;;;;;17.77;14.30;;;4.80;99.90;;;;;;5053167;28;20655;-69
2023/12/19 03:19:25;;;;;;;19.97;14.57;;;4.80;99.90;;;;;;5052757;28;20171;-69
2023/12/19 03:21:51;;;;;;;16.53;14.10;;;4.90;99.90;;;;;;5051750;28;20253;-68
2023/12/19 03:24:16;;;;;;;18.00;14.07;;;4.90;99.90;;;;;;5052718;28;20170;-68
2023/12/19 03:26:42;;;;;;;18.60;14.97;;;4.80;99.90;;;;;;5052374;28;20166;-69
2023/12/19 03:29:08;;;;;;;19.93;15.80;;;4.80;99.90;;;;;;5053140;28;20663;-69
2023/12/19 03:31:34;;;;;;;17.50;14.40;;;4.90;99.90;;;;;;5051272;28;20194;-68
2023/12/19 03:34:02;;;;;;;20.07;15.03;;;4.90;99.90;;;;;;5052923;28;20170;-68
2023/12/19 03:36:28;;;;;;;18.83;14.43;;;4.90;99.90;;;;;;5052631;28;20709;-68
2023/12/19 03:38:54;;;;;;;18.80;13.67;;;4.90;99.90;;;;;;5052561;28;20171;-69
2023/12/19 03:41:20;;;;;;;18.40;13.93;;;4.90;99.90;;;;;;5052198;28;20249;-69
2023/12/19 03:43:45;;;;;;;22.87;15.07;;;5.00;99.90;;;;;;5052434;28;20627;-68
2023/12/19 03:46:12;;;;;;;19.53;14.83;;;5.00;99.90;;;;;;5051139;28;20281;-69
2023/12/19 03:48:38;;;;;;;20.37;14.07;;;5.00;99.90;;;;;;5052288;28;20580;-69
2023/12/19 03:51:04;;;;;;;19.23;14.37;;;5.00;99.90;;;;;;5052361;28;20699;-68
2023/12/19 03:53:30;;;;;;;18.90;15.10;;;5.00;99.90;;;;;;5051193;28;20239;-69
2023/12/19 03:55:56;;;;;;;18.73;14.37;;;5.10;99.90;;;;;;5052592;28;20672;-69
2023/12/19 03:58:22;;;;;;;18.73;14.67;;;5.10;99.90;;;;;;5052110;28;20175;-68
2023/12/19 04:00:48;;;;;;;21.60;15.30;;;5.10;99.90;;;;;;5051012;28;20206;-69
2023/12/19 04:03:14;;;;;;;18.97;14.47;;;5.10;99.90;;;;;;5052458;28;20197;-69
2023/12/19 04:05:40;;;;;;;18.57;14.93;;;5.20;99.90;;;;;;5055314;28;20274;-68
2023/12/19 04:08:06;;;;;;;18.93;14.90;;;5.20;99.90;;;;;;5055979;28;20206;-68
2023/12/19 04:10:31;;;;;;;23.27;15.83;;;5.20;99.90;;;;;;5056434;28;20229;-69
2023/12/19 04:12:57;;;;;;;18.90;15.20;;;5.30;99.90;;;;;;5054665;28;20193;-67
2023/12/19 04:15:24;;;;;;;20.63;15.13;;;5.30;99.90;;;;;;5054717;28;20214;-67
2023/12/19 04:17:50;;;;;;;24.00;14.93;;;5.30;99.90;;;;;;5056446;28;20170;-67
2023/12/19 04:20:15;;;;;;;18.77;15.57;;;5.30;99.90;;;;;;5055856;28;20567;-66
2023/12/19 04:22:42;;;;;;;21.17;15.70;;;5.30;99.90;;;;;;5056248;28;20171;-68
2023/12/19 04:25:08;;;;;;;23.23;16.87;;;5.30;99.90;;;;;;5055711;28;20174;-66
2023/12/19 04:27:34;;;;;;;23.30;16.10;;;5.30;99.90;;;;;;5055454;28;20182;-68
2023/12/19 04:30:00;;;;;;;22.27;16.30;;;5.40;99.90;;;;;;5055754;28;20259;-67
2023/12/19 04:32:26;;;;;;;23.50;16.43;;;5.40;99.90;;;;;;5054281;28;20273;-68
2023/12/19 04:34:52;;;;;;;25.87;17.47;;;5.30;99.90;;;;;;5055934;28;20206;-68
2023/12/19 04:37:17;;;;;;;27.10;18.20;;;5.40;99.90;;;;;;5055404;28;20182;-67
2023/12/19 04:39:43;;;;;;;24.87;19.17;;;5.40;99.90;;;;;;5055888;28;20714;-69
2023/12/19 04:42:09;;;;;;;26.33;17.83;;;5.40;99.90;;;;;;5055025;28;20197;-69
2023/12/19 04:44:35;;;;;;;24.50;17.50;;;5.40;99.90;;;;;;5053944;28;20197;-68
2023/12/19 04:47:01;;;;;;;26.20;18.20;;;5.40;99.90;;;;;;5055212;28;20261;-68
2023/12/19 04:49:26;;;;;;;25.60;18.63;;;5.40;99.90;;;;;;5055179;28;20195;-68
2023/12/19 04:51:52;;;;;;;28.73;19.57;;;5.40;99.90;;;;;;5053849;28;20182;-68
2023/12/19 04:54:18;;;;;;;27.80;18.43;;;5.30;99.90;;;;;;5054961;28;20265;-67
2023/12/19 04:56:44;;;;;;;29.67;20.00;;;5.30;99.90;;;;;;5055307;28;20175;-69
2023/12/19 04:59:09;;;;;;;30.80;20.20;;;5.30;99.90;;;;;;5055402;28;20197;-68
2023/12/19 05:01:40;;;;;;;27.07;18.67;;;5.30;99.90;;;;;;5054819;28;20248;-68
2023/12/19 05:04:06;;;;;;;29.03;18.33;;;5.30;99.90;;;;;;5053603;28;20190;-69
2023/12/19 05:06:33;;;;;;;26.33;19.10;;;5.30;99.90;;;;;;5054860;28;20265;-68
2023/12/19 05:08:59;;;;;;;30.47;19.83;;;5.30;99.90;;;;;;5053576;28;20537;-68
2023/12/19 05:11:25;;;;;;;28.53;19.47;;;5.20;99.90;;;;;;5054968;28;20202;-68
2023/12/19 05:13:51;;;;;;;30.07;17.77;;;5.30;99.90;;;;;;5054434;28;20268;-69
2023/12/19 05:16:18;;;;;;;27.57;18.17;;;5.20;99.90;;;;;;5054318;28;20202;-68
2023/12/19 05:18:45;;;;;;;24.97;17.20;;;5.20;99.90;;;;;;5054584;28;20182;-67
2023/12/19 05:21:12;;;;;;;24.83;16.50;;;5.20;99.90;;;;;;5054821;28;20190;-69
2023/12/19 05:23:40;;;;;;;20.83;16.23;;;5.20;99.90;;;;;;5054488;28;20171;-68
2023/12/19 05:26:07;;;;;;;18.53;14.57;;;5.30;99.90;;;;;;5054397;28;20202;-68
2023/12/19 05:28:35;;;;;;;19.93;14.37;;;5.30;99.90;;;;;;5054200;28;20624;-68
2023/12/19 05:31:01;;;;;;;20.97;14.47;;;5.30;99.90;;;;;;5053084;28;20202;-68
2023/12/19 05:33:29;;;;;;;21.50;14.73;;;5.30;99.90;;;;;;5053063;28;20178;-68
2023/12/19 05:35:55;;;;;;;20.73;15.23;;;5.30;99.90;;;;;;5054469;28;20281;-68
2023/12/19 05:38:21;;;;;;;19.17;14.67;;;5.30;99.90;;;;;;5054551;28;20177;-68
2023/12/19 05:40:48;;;;;;;18.17;13.47;;;5.30;99.90;;;;;;5054342;28;20190;-69
2023/12/19 05:43:14;;;;;;;18.43;13.53;;;5.30;99.90;;;;;;5053854;28;20713;-66
2023/12/19 05:45:40;;;;;;;16.20;12.90;;;5.30;99.90;;;;;;5054044;28;20209;-68
2023/12/19 05:48:07;;;;;;;15.03;11.73;;;5.30;99.90;;;;;;5054244;28;20546;-68
2023/12/19 05:50:32;;;;;;;13.17;11.77;;;5.30;99.90;;;;;;5052784;28;20675;-68
2023/12/19 05:52:58;;;;;;;17.70;12.63;;;5.30;99.90;;;;;;5052754;28;20208;-68
2023/12/19 05:55:24;;;;;;;15.30;12.77;;;5.30;99.90;;;;;;5054350;28;20206;-66
2023/12/19 05:57:50;;;;;;;15.20;12.60;;;5.40;99.90;;;;;;5052361;28;20175;-68
2023/12/19 06:00:17;;;;;;;15.33;11.87;;;5.40;99.90;;;;;;5053781;28;20698;-68
2023/12/19 06:02:43;;;;;;;13.07;10.83;;;5.40;99.90;;;;;;5054574;28;20174;-68
2023/12/19 06:05:09;;;;;;;14.50;11.90;;;5.50;99.90;;;;;;5054066;28;20174;-67
2023/12/19 06:07:40;;;;;;;13.20;10.50;;;5.50;99.90;;;;;;5053873;28;20181;-69
2023/12/19 06:10:11;;;;;;;11.93;10.53;;;5.50;99.90;;;;;;5054105;28;20202;-67
2023/12/19 06:12:37;;;;;;;13.17;10.97;;;5.50;99.90;;;;;;5053526;28;20268;-66
2023/12/19 06:15:08;;;;;;;12.97;10.57;;;5.50;99.90;;;;;;5053531;28;20301;-68
2023/12/19 06:17:35;;;;;;;14.67;10.93;;;5.50;99.90;;;;;;5053666;28;20159;-68
2023/12/19 06:20:02;;;;;;;11.13;9.60;;;5.60;99.90;;;;;;5052145;28;20198;-68
2023/12/19 06:22:28;;;;;;;10.97;9.27;;;5.60;99.90;;;;;;5052093;28;20174;-68
2023/12/19 06:24:54;;;;;;;10.57;9.47;;;5.60;99.90;;;;;;5052088;28;20190;-68
2023/12/19 06:27:20;;;;;;;10.20;9.13;;;5.70;99.90;;;;;;5051328;28;20178;-67
2023/12/19 06:29:46;;;;;;;12.80;10.20;;;5.70;99.90;;;;;;5053225;28;20202;-67
2023/12/19 06:32:12;;;;;;;10.33;9.33;;;5.70;99.90;;;;;;5053272;28;20197;-68
2023/12/19 06:34:37;;;;;;;11.93;9.73;;;5.70;99.90;;;;;;5051861;28;20691;-68
2023/12/19 06:37:03;;;;;;;11.00;9.80;;;5.70;99.90;;;;;;5051894;28;20182;-67
2023/12/19 06:39:29;;;;;;;11.70;9.30;;;5.80;99.90;;;;;;5053461;28;20169;-68
2023/12/19 06:41:55;;;;;;;12.30;10.60;;;5.80;99.90;;;;;;5053024;28;20539;-67
2023/12/19 06:44:22;;;;;;;10.83;9.67;;;5.90;99.90;;;;;;5053366;28;20182;-68
2023/12/19 06:46:49;;;;;;;12.33;9.77;;;5.90;99.90;;;;;;5053483;28;20171;-68
2023/12/19 06:49:22;;;;;;;12.50;9.20;;;5.90;99.90;;;;;;5051496;28;20194;-68
2023/12/19 06:51:48;;;;;;;11.00;9.80;;;5.90;99.90;;;;;;5051735;28;20178;-68
2023/12/19 06:54:14;;;;;;;9.93;8.93;;;5.90;99.90;;;;;;5052902;28;20253;-68
2023/12/19 06:56:40;;;;;;;11.40;9.67;;;5.90;99.90;;;;;;5053398;28;20258;-68
2023/12/19 06:59:07;;;;;;;12.50;9.70;;;6.00;99.90;;;;;;5052662;28;20179;-69
2023/12/19 07:01:32;;;;;;;10.03;9.00;;;6.00;99.90;;;;;;5051618;28;20198;-68
2023/12/19 07:03:58;;;;;;;9.47;8.57;;;5.90;99.90;;;;;;5053184;28;20257;-67
2023/12/19 07:06:25;;;;;;;13.00;9.27;;;5.90;99.90;;;;;;5053173;28;20182;-67
2023/12/19 07:08:51;;;;;;;11.07;9.97;;;5.90;99.90;;;;;;5052758;28;20190;-67
2023/12/19 07:11:18;;;;;;;12.43;10.97;;;5.90;99.90;;;;;;5052815;28;20247;-67
2023/12/19 07:13:44;;;;;;;13.43;10.93;;;5.90;99.90;;;;;;5052520;28;20182;-68
2023/12/19 07:16:14;;;;;;;11.20;10.07;;;5.90;99.90;;;;;;5051479;28;20297;-68
2023/12/19 07:18:40;;;;;;;12.93;10.27;;;5.90;99.90;;;;;;5052842;28;20167;-68
2023/12/19 07:21:07;;;;;;;13.57;11.23;;;5.80;99.90;;;;;;5052824;28;20198;-69
2023/12/19 07:23:33;;;;;;;13.53;11.27;;;5.80;99.90;;;;;;5051658;28;20183;-67
2023/12/19 07:25:58;;;;;;;13.70;12.07;;;5.80;99.90;;;;;;5051881;28;20188;-67
2023/12/19 07:28:25;;;;;;;14.17;11.83;;;5.80;99.90;;;;;;5051474;28;20236;-66
2023/12/19 07:30:51;;;;;;;14.97;11.67;;;5.80;99.90;;;;;;5052705;28;20205;-68
2023/12/19 07:33:16;;;;;;;14.03;11.17;;;5.80;99.90;;;;;;5053340;28;20174;-69
2023/12/19 07:35:42;;;;;;;16.30;12.10;;;5.80;99.90;;;;;;5052730;28;20615;-68
2023/12/19 07:38:08;;;;;;;13.50;11.23;;;5.80;99.90;;;;;;5053161;28;20174;-68
2023/12/19 07:40:35;;;;;;;13.87;11.47;;;5.80;99.90;;;;;;5055526;28;20221;-67
2023/12/19 07:43:02;;;;;;;13.73;11.67;;;5.80;99.90;;;;;;5055014;28;20210;-67
2023/12/19 07:45:28;;;;;;;12.23;10.93;;;5.80;99.90;;;;;;5057015;28;20178;-68
2023/12/19 07:47:54;;;;;;;12.63;10.43;;;5.70;99.90;;;;;;5056336;28;20651;-68
2023/12/19 07:50:20;;;;;;;12.27;10.47;;;5.70;99.90;;;;;;5055033;28;20260;-67
2023/12/19 07:52:46;;;;;;;13.33;10.53;;;5.70;99.90;;;;;;5056592;28;20233;-68
2023/12/19 07:55:11;;;;;;;11.50;10.03;;;5.60;99.90;;;;;;5055257;28;20209;-67
2023/12/19 07:57:38;;;;;;;11.57;9.93;;;5.60;99.90;;;;;;5056055;28;20241;-68
2023/12/19 08:00:05;;;;;;;12.23;10.27;;;5.60;99.90;;;;;;5056425;28;20194;-67
2023/12/19 08:02:32;;;;;;;10.23;9.13;;;5.60;99.90;;;;;;5056160;28;20174;-68
2023/12/19 08:04:58;;;;;;;11.37;8.93;;;5.60;99.90;;;;;;5056434;28;20174;-69
2023/12/19 08:07:25;;;;;;;10.43;8.60;;;5.60;99.90;;;;;;5054959;28;20186;-69
2023/12/19 08:09:51;;;;;;;9.87;8.87;;;5.70;99.90;;;;;;5055962;28;20190;-68
2023/12/19 08:12:16;;;;;;;9.33;8.43;;;5.70;99.90;;;;;;5055747;28;20285;-68
2023/12/19 08:14:42;;;;;;;9.13;8.20;;;5.70;99.90;;;;;;5054507;28;20770;-68
2023/12/19 08:17:08;;;;;;;9.50;8.30;;;5.70;99.90;;;;;;5055899;28;20224;-66
2023/12/19 08:19:34;;;;;;;8.73;7.93;;;5.70;99.90;;;;;;5055718;28;20179;-66
2023/12/19 08:22:00;;;;;;;8.83;8.07;;;5.70;99.90;;;;;;5058125;28;20175;-69
2023/12/19 08:24:25;;;;;;;7.80;7.20;;;5.80;99.90;;;;;;5057060;28;20200;-70
2023/12/19 08:26:52;;;;;;;11.10;8.33;;;5.80;99.90;;;;;;5055328;28;20274;-67
2023/12/19 08:29:18;;;;;;;8.50;7.60;;;5.90;99.90;;;;;;5055592;28;20174;-66
2023/12/19 08:31:46;;;;;;;8.37;7.57;;;6.00;99.90;;;;;;5055702;28;20781;-67
2023/12/19 08:34:12;;;;;;;7.80;7.20;;;6.00;99.90;;;;;;5054333;28;20203;-68
2023/12/19 08:36:38;;;;;;;7.90;7.20;;;6.00;99.90;;;;;;5054241;28;20238;-68
2023/12/19 08:39:07;;;;;;;8.37;7.57;;;6.00;99.90;;;;;;5056036;28;20174;-67
2023/12/19 08:41:33;;;;;;;7.90;7.20;;;6.00;99.90;;;;;;5055641;28;20187;-68
2023/12/19 08:43:59;;;;;;;8.77;7.87;;;6.00;99.90;;;;;;5053912;28;20551;-66
2023/12/19 08:46:25;;;;;;;8.00;7.20;;;6.00;99.90;;;;;;5054064;28;20584;-67
2023/12/19 08:48:51;;;;;;;7.93;7.13;;;6.00;99.90;;;;;;5055177;28;20201;-68
2023/12/19 08:51:20;;;;;;;7.80;7.10;;;6.00;99.90;;;;;;5054556;28;20190;-67
2023/12/19 08:53:46;;;;;;;7.83;7.03;;;6.00;99.90;;;;;;5053925;28;20186;-67
2023/12/19 08:56:12;;;;;;;8.40;7.70;;;6.00;99.90;;;;;;5055127;28;20196;-67
2023/12/19 08:58:38;;;;;;;7.97;7.27;;;6.00;99.90;;;;;;5054903;28;20179;-68
2023/12/19 09:01:04;;;;;;;8.33;7.63;;;6.00;99.90;;;;;;5054988;28;20203;-67
2023/12/19 09:03:30;;;;;;;7.60;7.00;;;6.00;99.90;;;;;;5054939;28;20171;-67
2023/12/19 09:05:55;;;;;;;8.30;7.53;;;6.00;99.90;;;;;;5055232;28;20649;-67
2023/12/19 09:08:23;;;;;;;8.60;7.77;;;6.00;99.90;;;;;;5054905;28;20593;-68
2023/12/19 09:10:49;;;;;;;9.73;7.67;;;6.00;99.90;;;;;;5055170;28;20686;-65
2023/12/19 09:13:16;;;;;;;8.70;7.93;;;6.00;99.90;;;;;;5054636;28;20171;-68
2023/12/19 09:15:42;;;;;;;9.13;8.23;;;6.00;99.90;;;;;;5054693;28;20572;-67
2023/12/19 09:18:08;;;;;;;9.13;8.00;;;6.00;99.90;;;;;;5055153;28;20155;-67
2023/12/19 09:20:33;;;;;;;10.13;8.87;;;6.00;99.90;;;;;;5054605;28;20573;-68
2023/12/19 09:23:00;;;;;;;10.20;9.20;;;6.00;99.90;;;;;;5053296;28;20571;-68
2023/12/19 09:25:26;;;;;;;10.87;9.13;;;6.10;99.90;;;;;;5054560;28;20167;-68
2023/12/19 09:27:52;;;;;;;10.17;8.93;;;6.10;99.90;;;;;;5054250;28;20179;-65
2023/12/19 09:30:17;;;;;;;10.73;9.63;;;6.00;99.90;;;;;;5054617;28;20194;-67
2023/12/19 09:32:44;;;;;;;10.80;9.13;;;6.00;99.90;;;;;;5053026;28;20178;-66
2023/12/19 09:35:13;;;;;;;11.67;10.47;;;6.00;99.90;;;;;;5054362;28;20195;-66
2023/12/19 09:37:38;;;;;;;12.73;10.60;;;6.00;99.90;;;;;;5054265;28;20206;-67
2023/12/19 09:40:17;;;;;;;13.50;11.00;;;6.00;99.90;;;;;;5052685;28;20230;-67
2023/12/19 09:42:43;;;;;;;13.67;11.60;;;6.00;99.90;;;;;;5054096;28;20620;-66
2023/12/19 09:45:09;;;;;;;13.90;11.43;;;6.00;99.90;;;;;;5052573;28;20689;-66
2023/12/19 09:47:40;;;;;;;16.17;11.33;;;6.00;99.90;;;;;;5052662;28;20178;-67
2023/12/19 09:50:13;;;;;;;17.67;12.47;;;6.00;99.90;;;;;;5052439;28;20728;-68
2023/12/19 09:52:42;;;;;;;12.47;11.10;;;5.90;99.90;;;;;;5054205;28;20186;-67
2023/12/19 09:55:10;;;;;;;15.70;12.63;;;5.90;99.90;;;;;;5054274;28;20190;-67
2023/12/19 09:57:37;;;;;;;16.13;12.90;;;5.90;99.90;;;;;;5053562;28;20170;-67
2023/12/19 10:00:08;;;;;;;14.73;12.40;;;5.80;99.90;;;;;;5053698;28;20313;-66
2023/12/19 10:02:34;;;;;;;18.07;12.37;;;5.90;99.90;;;;;;5051669;28;20196;-66
2023/12/19 10:05:00;;;;;;;14.03;12.60;;;5.90;99.90;;;;;;5053757;28;20189;-68
2023/12/19 10:07:29;;;;;;;11.63;10.53;;;5.90;99.90;;;;;;5052422;28;20564;-67
2023/12/19 10:09:56;;;;;;;13.43;11.23;;;5.90;99.90;;;;;;5052332;28;20225;-68
2023/12/19 10:12:23;;;;;;;13.37;11.57;;;5.90;99.90;;;;;;5052323;28;20670;-65
2023/12/19 10:14:49;;;;;;;12.97;11.17;;;5.90;99.90;;;;;;5053129;28;20293;-68
2023/12/19 10:17:17;;;;;;;15.33;11.30;;;5.90;99.90;;;;;;5053813;28;20182;-68
2023/12/19 10:19:44;;;;;;;12.70;10.83;;;5.80;99.90;;;;;;5053899;28;20187;-67
2023/12/19 10:22:12;;;;;;;14.90;11.63;;;5.80;99.90;;;;;;5053509;28;20174;-68
2023/12/19 10:24:38;;;;;;;11.70;10.47;;;5.80;99.90;;;;;;5052179;28;20600;-68
2023/12/19 10:27:07;;;;;;;12.77;11.33;;;5.90;99.90;;;;;;5053668;28;20213;-68
2023/12/19 10:29:36;;;;;;;13.43;10.90;;;5.90;99.90;;;;;;5053001;28;20659;-67
2023/12/19 10:32:31;;;;;;;13.83;11.10;;;5.90;99.90;;;;;;5053614;28;20563;-67
2023/12/19 10:34:57;;;;;;;14.73;11.37;;;5.90;99.90;;;;;;5052578;28;20226;-68
2023/12/19 10:37:27;;;;;;;13.90;10.33;;;6.00;99.90;;;;;;5053831;28;20249;-66
2023/12/19 10:40:10;;;;;;;13.10;10.83;;;5.90;99.90;;;;;;5051851;28;20573;-67
2023/12/19 10:42:36;;;;;;;12.53;9.87;;;5.90;99.90;;;;;;5053164;28;20159;-67
2023/12/19 10:45:05;;;;;;;11.37;10.13;;;5.90;99.90;;;;;;5053014;28;20563;-67
2023/12/19 10:47:31;;;;;;;12.60;10.47;;;5.90;99.90;;;;;;5053009;28;20176;-67
2023/12/19 10:49:57;;;;;;;11.80;10.57;;;5.90;99.90;;;;;;5052888;28;20299;-67
2023/12/19 10:52:27;;;;;;;12.53;11.03;;;5.90;99.90;;;;;;5053036;28;20213;-66
2023/12/19 10:55:08;;;;;;;13.50;10.73;;;5.90;99.90;;;;;;5052903;28;20285;-68
2023/12/19 10:57:37;;;;;;;14.70;10.30;;;5.90;99.90;;;;;;5053484;28;20155;-67
2023/12/19 11:00:09;;;;;;;11.93;10.63;;;5.90;99.90;;;;;;5052786;28;20575;-66
2023/12/19 11:02:45;;;;;;;12.00;10.13;;;5.90;99.90;;;;;;5051701;28;20645;-68
2023/12/19 11:05:25;;;;;;;13.03;10.87;;;6.00;99.90;;;;;;5051555;28;20245;-68
2023/12/19 11:07:51;;;;;;;11.93;10.37;;;6.00;99.90;;;;;;5053427;28;20245;-68
2023/12/19 11:10:22;;;;;;;14.93;11.77;;;6.00;99.90;;;;;;5052974;28;20706;-68
2023/12/19 11:12:50;;;;;;;14.00;11.13;;;6.00;99.90;;;;;;5053298;28;20539;-67
2023/12/19 11:15:16;;;;;;;12.60;11.20;;;6.00;99.90;;;;;;5056853;28;20213;-67
2023/12/19 11:18:00;;;;;;;12.97;10.17;;;6.00;99.90;;;;;;5056992;28;20174;-67
2023/12/19 11:20:40;;;;;;;12.63;10.63;;;6.00;99.90;;;;;;5057031;28;20197;-67
2023/12/19 11:23:21;;;;;;;11.67;10.00;;;6.00;99.90;;;;;;5056854;28;20194;-68
2023/12/19 11:25:54;;;;;;;10.93;9.83;;;6.00;99.90;;;;;;5056741;28;20308;-68
2023/12/19 11:28:20;;;;;;;12.50;9.60;;;6.00;99.90;;;;;;5056480;28;20170;-68
2023/12/19 11:30:46;;;;;;;13.20;10.27;;;6.00;99.90;;;;;;5056894;28;20202;-67
2023/12/19 11:33:13;;;;;;;11.37;9.70;;;6.00;99.90;;;;;;5057117;28;20256;-67
2023/12/19 11:35:40;;;;;;;10.27;9.23;;;6.00;99.90;;;;;;5056801;28;20617;-66
2023/12/19 11:38:15;;;;;;;11.10;9.63;;;6.00;99.90;;;;;;5056527;28;20189;-67
2023/12/19 11:40:47;;;;;;;9.50;8.47;;;6.00;99.90;;;;;;5056450;28;20205;-68
2023/12/19 11:43:28;;;;;;;9.33;8.43;;;6.00;99.90;;;;;;5056265;28;20171;-68
2023/12/19 11:46:03;;;;;;;9.27;8.43;;;6.00;99.90;;;;;;5056327;28;20182;-68
2023/12/19 11:48:37;;;;;;;13.97;8.60;;;6.00;99.90;;;;;;5056493;28;20190;-67
2023/12/19 11:51:04;;;;;;;8.53;7.63;;;6.00;99.90;;;;;;5056366;28;20197;-67
2023/12/19 11:53:30;;;;;;;9.30;8.30;;;6.00;99.90;;;;;;5056242;28;20183;-68
2023/12/19 11:56:10;;;;;;;8.97;7.23;;;6.00;99.90;;;;;;5056081;28;20597;-68
2023/12/19 11:58:37;;;;;;;8.57;7.67;;;6.10;99.90;;;;;;5055867;28;20180;-66
2023/12/19 12:01:08;;;;;;;9.13;7.97;;;6.10;99.90;;;;;;5056019;28;20299;-67
2023/12/19 12:03:34;;;;;;;7.37;6.77;;;6.10;99.90;;;;;;5056635;28;20155;-67
2023/12/19 12:06:02;;;;;;;7.60;6.83;;;6.10;99.90;;;;;;5054720;28;20710;-67
2023/12/19 12:08:28;;;;;;;7.37;6.70;;;6.10;99.90;;;;;;5054750;28;20182;-68
2023/12/19 12:11:07;;;;;;;7.20;6.43;;;6.10;99.90;;;;;;5055906;28;20194;-68
2023/12/19 12:13:35;;;;;;;7.33;6.20;;;6.10;99.90;;;;;;5056765;28;20180;-66
2023/12/19 12:16:02;;;;;;;7.00;6.40;;;6.10;99.90;;;;;;5075857;28;20259;-67
2023/12/19 12:18:30;;;;;;;7.03;6.27;;;6.10;99.90;;;;;;5074571;28;20269;-67
2023/12/19 12:21:09;;;;;;;6.50;6.00;;;6.10;99.90;;;;;;5075673;28;20217;-67
2023/12/19 12:23:35;;;;;;;6.80;6.10;;;6.10;99.90;;;;;;5075958;28;20622;-66
2023/12/19 12:26:01;;;;;;;6.70;6.10;;;6.00;99.90;;;;;;5075242;28;20608;-67
2023/12/19 12:28:28;;;;;;;7.00;6.40;;;6.00;99.90;;;;;;5074047;28;20243;-67
2023/12/19 12:30:59;;;;;;;6.40;5.90;;;6.00;99.90;;;;;;5074219;28;20225;-67
2023/12/19 12:33:26;;;;;;;6.03;5.63;;;6.00;99.90;;;;;;5074255;28;20217;-67
2023/12/19 12:35:52;;;;;;;6.50;6.10;;;6.00;99.90;;;;;;5075458;28;20205;-67
2023/12/19 12:38:19;;;;;;;6.77;6.10;;;6.00;99.90;;;;;;5075448;28;20200;-66
2023/12/19 12:40:59;;;;;;;6.40;6.00;;;6.00;99.90;;;;;;5074090;28;20689;-67